Time;durP1;ratioP1;P1;durP2;ratioP2;P2;SDS_P1;SDS_P2;PMS_P1;PMS_P2;Temp;Humidity;BMP_temperature;BMP_pressure;BME280_temperature;BME280_humidity;BME280_pressure;Samples;Min_cycle;Max_cycle;Signal;HPM_P1;HPM_P2
2023/11/20 00:02:09;;;;;;;7.17;2.20;;;15.60;54.90;;;;;;5038923;28;20176;-49
2023/11/20 00:04:34;;;;;;;14.30;2.50;;;15.80;54.80;;;;;;5039151;28;20181;-51
2023/11/20 00:07:00;;;;;;;9.80;2.63;;;15.60;54.50;;;;;;5038382;28;20193;-50
2023/11/20 00:09:26;;;;;;;8.47;1.93;;;15.60;54.80;;;;;;5040486;28;20220;-53
2023/11/20 00:11:51;;;;;;;9.00;3.10;;;15.60;54.60;;;;;;5035736;28;20544;-51
2023/11/20 00:14:17;;;;;;;12.43;2.60;;;15.60;54.70;;;;;;5039290;28;20777;-54
2023/11/20 00:16:42;;;;;;;6.57;2.00;;;15.60;54.80;;;;;;5034669;28;20224;-50
2023/11/20 00:19:10;;;;;;;7.07;1.90;;;15.50;54.70;;;;;;5032066;28;20201;-52
2023/11/20 00:21:40;;;;;;;5.60;2.43;;;15.50;54.50;;;;;;5043923;28;20235;-54
2023/11/20 00:24:07;;;;;;;6.03;2.17;;;15.60;55.00;;;;;;5029320;28;20462;-54
2023/11/20 00:26:32;;;;;;;9.57;2.40;;;15.70;54.40;;;;;;5032167;28;20481;-51
2023/11/20 00:28:59;;;;;;;7.80;2.47;;;15.70;54.70;;;;;;5044142;28;20491;-52
2023/11/20 00:31:25;;;;;;;7.33;1.77;;;15.70;54.30;;;;;;5027667;28;20205;-50
2023/11/20 00:33:50;;;;;;;12.90;2.10;;;15.70;54.40;;;;;;5024567;28;20459;-54
2023/11/20 00:36:16;;;;;;;9.30;2.10;;;15.80;54.30;;;;;;5027440;28;20471;-52
2023/11/20 00:38:42;;;;;;;6.57;2.57;;;15.70;54.30;;;;;;5028421;28;20207;-54
2023/11/20 00:41:09;;;;;;;6.83;2.10;;;16.00;54.20;;;;;;5030346;28;21802;-52
2023/11/20 00:43:35;;;;;;;8.13;2.47;;;15.90;54.00;;;;;;5019245;28;20280;-51
2023/11/20 00:46:01;;;;;;;7.77;2.37;;;15.80;54.50;;;;;;5021935;28;20436;-55
2023/11/20 00:48:27;;;;;;;9.27;2.87;;;15.90;54.60;;;;;;5026080;28;20213;-53
2023/11/20 00:50:54;;;;;;;5.13;2.00;;;16.00;54.80;;;;;;5024728;28;20521;-50
2023/11/20 00:53:20;;;;;;;4.37;2.00;;;16.00;55.00;;;;;;5023906;28;20424;-51
2023/11/20 00:55:45;;;;;;;10.07;2.70;;;16.00;54.90;;;;;;5026638;28;20509;-55
2023/11/20 00:58:11;;;;;;;7.13;2.00;;;16.00;55.10;;;;;;5027721;28;20478;-49
2023/11/20 01:00:37;;;;;;;10.63;2.60;;;15.90;55.30;;;;;;5027812;28;20181;-51
2023/11/20 01:03:03;;;;;;;12.63;3.37;;;15.70;55.80;;;;;;5032633;28;20186;-50
2023/11/20 01:05:29;;;;;;;6.23;2.10;;;15.70;56.00;;;;;;5034942;28;20449;-50
2023/11/20 01:07:54;;;;;;;7.63;2.17;;;15.80;55.80;;;;;;5036875;28;20203;-52
2023/11/20 01:10:20;;;;;;;4.67;1.67;;;15.80;55.70;;;;;;5025487;28;20262;-53
2023/11/20 01:12:46;;;;;;;5.73;1.73;;;15.80;55.60;;;;;;5016104;28;20275;-50
2023/11/20 01:15:11;;;;;;;9.13;2.23;;;15.60;55.80;;;;;;5021227;28;20822;-50
2023/11/20 01:17:37;;;;;;;13.10;2.37;;;15.50;56.30;;;;;;5030925;28;20227;-51
2023/11/20 01:20:04;;;;;;;7.00;2.10;;;15.40;56.30;;;;;;5030257;28;21047;-54
2023/11/20 01:22:30;;;;;;;7.00;2.10;;;15.50;56.30;;;;;;5029790;28;20204;-50
2023/11/20 01:24:56;;;;;;;6.17;2.43;;;15.30;56.20;;;;;;5019271;28;20427;-55
2023/11/20 01:27:21;;;;;;;8.70;1.90;;;15.20;56.70;;;;;;5017546;28;20982;-50
2023/11/20 01:29:47;;;;;;;11.77;2.10;;;15.20;56.80;;;;;;5020100;28;20960;-55
2023/11/20 01:32:13;;;;;;;14.30;2.97;;;15.20;56.80;;;;;;5026064;28;20185;-53
2023/11/20 01:34:38;;;;;;;10.63;2.87;;;15.00;56.80;;;;;;5027993;28;20185;-53
2023/11/20 01:37:04;;;;;;;7.67;2.07;;;15.20;56.80;;;;;;5027866;28;20629;-50
2023/11/20 01:39:31;;;;;;;6.63;2.00;;;15.20;56.50;;;;;;5028231;28;21292;-52
2023/11/20 01:41:56;;;;;;;9.73;2.10;;;15.20;56.60;;;;;;5030431;28;20199;-50
2023/11/20 01:44:22;;;;;;;8.00;1.93;;;15.30;56.50;;;;;;5025755;28;20432;-49
2023/11/20 01:46:49;;;;;;;5.77;2.37;;;15.60;56.20;;;;;;5035283;28;20673;-50
2023/11/20 01:49:15;;;;;;;10.57;2.50;;;15.60;56.00;;;;;;5036675;28;20455;-55
2023/11/20 01:51:41;;;;;;;7.63;2.33;;;15.70;55.70;;;;;;5035664;28;20454;-50
2023/11/20 01:54:08;;;;;;;10.97;2.47;;;15.60;55.70;;;;;;5031505;28;20195;-56
2023/11/20 01:56:35;;;;;;;5.60;2.20;;;15.40;55.60;;;;;;5028313;28;20476;-53
2023/11/20 01:59:05;;;;;;;6.87;2.13;;;15.10;56.20;;;;;;5031325;28;20503;-49
2023/11/20 02:01:32;;;;;;;7.40;2.37;;;15.10;56.20;;;;;;5030428;28;21214;-49
2023/11/20 02:04:03;;;;;;;8.20;3.30;;;15.10;56.90;;;;;;5029617;28;20921;-52
2023/11/20 02:06:29;;;;;;;11.53;3.80;;;15.10;56.80;;;;;;5029285;28;20444;-50
2023/11/20 02:08:55;;;;;;;11.03;1.97;;;15.10;56.70;;;;;;5035369;28;20567;-49
2023/11/20 02:11:21;;;;;;;10.70;2.80;;;15.40;56.70;;;;;;5038686;28;20439;-53
2023/11/20 02:13:50;;;;;;;8.07;3.23;;;15.40;56.40;;;;;;5030141;28;20189;-53
2023/11/20 02:16:16;;;;;;;9.33;1.83;;;15.50;56.50;;;;;;5036890;28;20541;-52
2023/11/20 02:18:42;;;;;;;14.53;2.30;;;15.60;56.60;;;;;;5040870;28;20454;-53
2023/11/20 02:21:07;;;;;;;6.10;1.87;;;15.60;56.70;;;;;;5033120;28;20978;-54
2023/11/20 02:23:33;;;;;;;6.93;2.23;;;15.50;57.10;;;;;;5046693;28;20185;-49
2023/11/20 02:26:24;;;;;;;13.47;3.07;;;15.40;57.30;;;;;;5034957;28;20918;-50
2023/11/20 02:29:15;;;;;;;9.67;2.23;;;15.30;57.80;;;;;;5027386;28;20550;-54
2023/11/20 02:31:41;;;;;;;8.57;1.80;;;15.20;58.70;;;;;;5035877;28;20455;-50
2023/11/20 02:34:07;;;;;;;6.80;2.20;;;15.30;58.60;;;;;;5031931;28;20419;-58
2023/11/20 02:36:33;;;;;;;6.00;2.03;;;15.30;58.70;;;;;;5031161;28;20217;-52
2023/11/20 02:38:58;;;;;;;8.90;2.40;;;15.40;58.60;;;;;;5028522;28;20467;-52
2023/11/20 02:41:24;;;;;;;13.60;2.23;;;15.50;58.70;;;;;;5032578;28;20330;-50
2023/11/20 02:43:50;;;;;;;7.40;1.60;;;15.50;58.80;;;;;;5035562;28;20196;-51
2023/11/20 02:46:16;;;;;;;9.63;2.37;;;15.50;59.20;;;;;;5028369;28;20631;-50
2023/11/20 02:48:42;;;;;;;8.37;1.97;;;15.50;59.10;;;;;;5029978;28;20483;-51
2023/11/20 02:51:07;;;;;;;6.93;2.20;;;15.20;59.60;;;;;;5031759;28;20177;-52
2023/11/20 02:53:33;;;;;;;6.27;1.90;;;15.40;59.80;;;;;;5033402;28;20219;-52
2023/11/20 02:55:58;;;;;;;4.70;1.70;;;15.60;59.60;;;;;;5031376;28;20228;-52
2023/11/20 02:58:24;;;;;;;6.40;1.40;;;15.40;59.70;;;;;;5035480;28;20583;-56
2023/11/20 03:00:50;;;;;;;6.30;2.93;;;15.50;60.10;;;;;;5036029;28;20686;-50
2023/11/20 03:03:17;;;;;;;10.50;2.23;;;15.60;60.00;;;;;;5039659;28;20283;-52
2023/11/20 03:05:44;;;;;;;6.87;1.83;;;15.50;59.90;;;;;;5037204;28;20444;-52
2023/11/20 03:08:09;;;;;;;7.00;2.77;;;15.50;60.10;;;;;;5032120;28;20934;-51
2023/11/20 03:10:35;;;;;;;7.37;1.93;;;15.40;60.30;;;;;;5040076;28;20534;-50
2023/11/20 03:13:01;;;;;;;5.30;1.33;;;15.40;60.50;;;;;;5033052;28;20189;-51
2023/11/20 03:15:27;;;;;;;6.70;2.23;;;15.40;60.30;;;;;;5026215;28;20300;-53
2023/11/20 03:17:54;;;;;;;5.77;2.10;;;15.40;60.30;;;;;;5030927;28;20212;-51
2023/11/20 03:20:20;;;;;;;12.67;2.03;;;15.40;60.40;;;;;;5033468;28;20826;-49
2023/11/20 03:22:46;;;;;;;4.40;2.00;;;15.40;60.50;;;;;;5039285;28;20869;-52
2023/11/20 03:25:12;;;;;;;9.43;2.37;;;15.60;60.10;;;;;;5035544;28;20437;-52
2023/11/20 03:27:38;;;;;;;4.17;1.90;;;15.60;59.60;;;;;;5036224;28;20652;-49
2023/11/20 03:30:06;;;;;;;8.00;2.70;;;15.40;59.40;;;;;;5044252;28;20227;-53
2023/11/20 03:32:32;;;;;;;2.57;1.53;;;15.40;59.90;;;;;;5032300;28;20454;-51
2023/11/20 03:34:58;;;;;;;5.13;1.60;;;15.30;59.70;;;;;;5040828;28;20496;-52
2023/11/20 03:37:24;;;;;;;6.33;2.10;;;15.40;59.80;;;;;;5032116;28;20475;-54
2023/11/20 03:39:49;;;;;;;7.63;1.80;;;15.30;59.50;;;;;;5028853;28;20204;-51
2023/11/20 03:42:15;;;;;;;5.50;2.03;;;15.40;59.60;;;;;;5040002;28;20181;-49
2023/11/20 03:44:40;;;;;;;8.00;1.90;;;15.50;59.30;;;;;;5036884;28;20185;-51
2023/11/20 03:47:06;;;;;;;4.17;1.30;;;15.50;59.30;;;;;;5036125;28;20196;-54
2023/11/20 03:49:32;;;;;;;7.23;2.10;;;15.70;59.10;;;;;;5033590;28;20213;-53
2023/11/20 03:51:57;;;;;;;4.43;1.80;;;15.80;58.80;;;;;;5039891;28;20522;-54
2023/11/20 03:54:23;;;;;;;6.77;1.60;;;15.70;58.60;;;;;;5033620;28;20622;-49
2023/11/20 03:56:48;;;;;;;9.87;1.93;;;15.70;58.30;;;;;;5028891;28;20687;-54
2023/11/20 03:59:15;;;;;;;5.87;1.90;;;15.60;58.50;;;;;;5034842;28;20612;-51
2023/11/20 04:01:41;;;;;;;9.17;2.37;;;15.50;58.90;;;;;;5037741;28;22075;-50
2023/11/20 04:04:08;;;;;;;5.63;1.63;;;15.70;58.70;;;;;;5032681;28;20466;-53
2023/11/20 04:06:33;;;;;;;9.23;1.80;;;15.90;58.30;;;;;;5040952;28;20786;-52
2023/11/20 04:08:59;;;;;;;2.70;1.43;;;16.00;57.80;;;;;;5039132;28;20482;-50
2023/11/20 04:11:25;;;;;;;7.77;2.70;;;16.20;57.70;;;;;;5035812;28;20648;-51
2023/11/20 04:13:50;;;;;;;14.13;2.80;;;16.30;57.50;;;;;;5040550;28;20193;-49
2023/11/20 04:16:16;;;;;;;5.80;1.83;;;16.20;57.40;;;;;;5037233;28;20200;-51
2023/11/20 04:18:44;;;;;;;9.77;2.50;;;16.20;57.40;;;;;;5030815;28;20257;-52
2023/11/20 04:21:10;;;;;;;7.33;1.97;;;16.20;57.30;;;;;;5041400;28;20271;-55
2023/11/20 04:23:36;;;;;;;6.57;2.10;;;16.30;57.20;;;;;;5036747;28;20886;-51
2023/11/20 04:26:02;;;;;;;10.67;2.13;;;16.20;56.90;;;;;;5042490;28;20188;-51
2023/11/20 04:28:28;;;;;;;3.93;1.97;;;16.00;56.80;;;;;;5038891;28;20209;-52
2023/11/20 04:30:53;;;;;;;7.03;2.03;;;15.70;57.30;;;;;;5029965;28;20435;-53
2023/11/20 04:33:19;;;;;;;3.93;2.00;;;15.70;57.70;;;;;;5036021;28;20873;-54
2023/11/20 04:35:45;;;;;;;8.07;2.47;;;15.80;57.60;;;;;;5028511;28;20692;-52
2023/11/20 04:38:10;;;;;;;9.67;2.83;;;15.70;57.70;;;;;;5034725;28;20576;-51
2023/11/20 04:40:36;;;;;;;7.50;2.03;;;15.40;57.80;;;;;;5036099;28;20229;-49
2023/11/20 04:43:01;;;;;;;5.27;2.00;;;15.50;58.20;;;;;;5041123;28;20216;-51
2023/11/20 04:45:27;;;;;;;7.23;2.17;;;15.50;58.00;;;;;;5040456;28;20196;-50
2023/11/20 04:47:52;;;;;;;5.47;2.00;;;15.60;57.90;;;;;;5036316;28;20189;-51
2023/11/20 04:50:18;;;;;;;7.07;2.50;;;15.60;58.20;;;;;;5035083;28;20213;-52
2023/11/20 04:52:43;;;;;;;9.53;2.90;;;15.60;57.90;;;;;;5031113;28;20232;-54
2023/11/20 04:55:09;;;;;;;10.90;2.93;;;15.60;58.10;;;;;;5032959;28;20193;-50
2023/11/20 04:57:35;;;;;;;9.13;2.70;;;15.70;58.00;;;;;;5035003;28;20213;-51
2023/11/20 05:00:02;;;;;;;7.47;2.10;;;15.70;58.00;;;;;;5037462;28;20668;-51
2023/11/20 05:02:28;;;;;;;7.83;2.43;;;15.80;57.90;;;;;;5029180;28;20185;-49
2023/11/20 05:04:54;;;;;;;7.90;2.20;;;15.80;57.80;;;;;;5031168;28;20443;-54
2023/11/20 05:07:20;;;;;;;7.87;2.30;;;15.80;57.90;;;;;;5032178;28;20555;-50
2023/11/20 05:09:45;;;;;;;8.80;1.60;;;15.80;57.70;;;;;;5029098;28;20475;-55
2023/11/20 05:12:11;;;;;;;9.70;2.20;;;15.80;57.60;;;;;;5031248;28;20367;-52
2023/11/20 05:14:36;;;;;;;7.70;2.60;;;15.90;57.50;;;;;;5030732;28;20240;-49
2023/11/20 05:17:02;;;;;;;9.13;1.90;;;16.00;57.20;;;;;;5029687;28;20217;-49
2023/11/20 05:19:28;;;;;;;8.00;2.00;;;16.10;56.90;;;;;;5029826;28;20231;-54
2023/11/20 05:21:53;;;;;;;4.90;2.03;;;16.20;56.70;;;;;;5030691;28;22071;-55
2023/11/20 05:24:19;;;;;;;4.60;1.97;;;16.20;56.50;;;;;;5034163;28;20631;-50
2023/11/20 05:26:44;;;;;;;7.50;2.30;;;16.20;56.40;;;;;;5037513;28;20184;-53
2023/11/20 05:29:12;;;;;;;7.93;2.37;;;16.20;56.40;;;;;;5030071;28;20204;-52
2023/11/20 05:31:37;;;;;;;7.00;1.50;;;16.20;56.30;;;;;;5033788;28;20201;-53
2023/11/20 05:34:03;;;;;;;4.43;1.97;;;16.20;55.90;;;;;;5039624;28;20439;-49
2023/11/20 05:36:28;;;;;;;7.63;2.07;;;16.10;55.80;;;;;;5031101;28;20205;-51
2023/11/20 05:38:55;;;;;;;6.47;1.73;;;15.90;55.70;;;;;;5035024;28;20219;-54
2023/11/20 05:41:21;;;;;;;7.17;2.30;;;16.00;55.90;;;;;;5032312;28;20185;-50
2023/11/20 05:43:47;;;;;;;4.17;1.97;;;16.00;55.50;;;;;;5043204;28;20865;-52
2023/11/20 05:46:13;;;;;;;3.10;1.30;;;15.90;55.60;;;;;;5037167;28;20809;-50
2023/11/20 05:48:39;;;;;;;7.20;2.07;;;15.90;55.60;;;;;;5033284;28;20508;-49
2023/11/20 05:51:04;;;;;;;14.40;4.40;;;16.00;55.70;;;;;;5034371;28;20478;-52
2023/11/20 05:53:30;;;;;;;13.37;5.73;;;15.90;55.70;;;;;;5032622;28;20192;-52
2023/11/20 05:55:55;;;;;;;6.87;2.53;;;16.00;55.30;;;;;;5031669;28;20196;-50
2023/11/20 05:58:21;;;;;;;6.10;1.77;;;15.90;55.00;;;;;;5026534;28;20672;-50
2023/11/20 06:00:47;;;;;;;13.20;2.60;;;15.70;55.30;;;;;;5032395;28;20231;-49
2023/11/20 06:03:13;;;;;;;8.40;1.77;;;15.90;55.30;;;;;;5029428;28;20424;-49
2023/11/20 06:05:38;;;;;;;5.33;2.37;;;15.70;55.00;;;;;;5033608;28;20193;-56
2023/11/20 06:08:04;;;;;;;8.40;1.93;;;15.70;55.30;;;;;;5028879;28;20197;-55
2023/11/20 06:10:30;;;;;;;8.57;2.77;;;15.70;55.30;;;;;;5035298;28;20193;-49
2023/11/20 06:12:55;;;;;;;5.83;2.73;;;15.80;55.40;;;;;;5030508;28;20212;-51
2023/11/20 06:15:21;;;;;;;5.40;1.87;;;16.00;55.50;;;;;;5029817;28;20185;-52
2023/11/20 06:17:46;;;;;;;5.67;1.70;;;16.10;54.30;;;;;;5031031;28;20213;-50
2023/11/20 06:20:13;;;;;;;6.20;2.27;;;16.20;54.20;;;;;;5028028;28;20201;-52
2023/11/20 06:22:39;;;;;;;5.63;2.00;;;16.30;54.20;;;;;;5027944;28;20190;-52
2023/11/20 06:25:06;;;;;;;9.10;2.33;;;16.30;53.90;;;;;;5033894;28;20454;-50
2023/11/20 06:27:32;;;;;;;6.37;2.47;;;16.40;53.90;;;;;;5034031;28;20435;-50
2023/11/20 06:29:58;;;;;;;4.80;1.90;;;16.40;53.90;;;;;;5032514;28;20814;-52
2023/11/20 06:32:24;;;;;;;8.20;3.37;;;16.40;54.10;;;;;;5039496;28;20442;-53
2023/11/20 06:34:50;;;;;;;8.73;2.60;;;16.40;53.80;;;;;;5041947;28;20525;-52
2023/11/20 06:37:16;;;;;;;29.47;6.17;;;16.40;54.10;;;;;;5036030;28;20609;-50
2023/11/20 06:39:42;;;;;;;17.10;3.40;;;16.50;54.00;;;;;;5031841;28;20204;-52
2023/11/20 06:42:08;;;;;;;3.93;1.87;;;16.50;53.70;;;;;;5034823;28;20188;-50
2023/11/20 06:44:38;;;;;;;5.03;1.93;;;16.50;53.80;;;;;;5038802;28;20930;-53
2023/11/20 06:47:04;;;;;;;5.17;2.00;;;16.50;53.20;;;;;;5037789;28;20196;-55
2023/11/20 06:49:29;;;;;;;7.40;2.30;;;16.30;53.20;;;;;;5038916;28;20455;-52
2023/11/20 06:51:55;;;;;;;5.23;2.10;;;16.20;53.50;;;;;;5038430;28;20439;-54
2023/11/20 06:54:20;;;;;;;7.30;2.10;;;16.20;53.70;;;;;;5046290;28;20189;-50
2023/11/20 06:56:46;;;;;;;7.43;2.47;;;16.30;53.70;;;;;;5038204;28;20209;-52
2023/11/20 06:59:11;;;;;;;6.40;2.53;;;16.40;53.80;;;;;;5041202;28;20299;-49
2023/11/20 07:01:44;;;;;;;11.60;2.30;;;16.40;53.40;;;;;;5038091;28;20649;-55
2023/11/20 07:04:09;;;;;;;6.57;2.83;;;16.20;53.50;;;;;;5036840;28;20553;-50
2023/11/20 07:06:37;;;;;;;7.17;1.80;;;16.20;53.70;;;;;;5040983;28;20439;-54
2023/11/20 07:09:12;;;;;;;4.33;2.67;;;16.10;53.60;;;;;;5037525;28;20209;-50
2023/11/20 07:11:37;;;;;;;3.50;1.87;;;16.00;53.90;;;;;;5043646;28;20442;-54
2023/11/20 07:14:03;;;;;;;9.33;2.93;;;16.10;54.00;;;;;;5038645;28;20454;-55
2023/11/20 07:16:29;;;;;;;9.00;2.20;;;16.20;54.00;;;;;;5034539;28;20213;-51
2023/11/20 07:18:54;;;;;;;10.80;2.20;;;16.20;53.80;;;;;;5033801;28;20236;-49
2023/11/20 07:21:20;;;;;;;3.30;1.40;;;16.30;53.60;;;;;;5035475;28;20517;-54
2023/11/20 07:23:46;;;;;;;4.87;2.00;;;16.40;53.50;;;;;;5041858;28;20660;-50
2023/11/20 07:26:17;;;;;;;9.67;2.30;;;16.40;53.20;;;;;;5038143;28;20272;-55
2023/11/20 07:28:42;;;;;;;10.57;2.47;;;16.40;53.00;;;;;;5041118;28;20217;-51
2023/11/20 07:31:08;;;;;;;5.40;2.37;;;16.40;53.30;;;;;;5033850;28;20467;-51
2023/11/20 07:33:34;;;;;;;7.20;1.83;;;16.30;53.00;;;;;;5035141;28;20189;-56
2023/11/20 07:35:59;;;;;;;10.97;3.30;;;16.40;53.00;;;;;;5036719;28;20189;-53
2023/11/20 07:38:25;;;;;;;9.70;2.77;;;16.20;52.70;;;;;;5037601;28;20319;-49
2023/11/20 07:40:51;;;;;;;7.70;2.10;;;16.30;53.00;;;;;;5034363;28;20220;-49
2023/11/20 07:43:17;;;;;;;10.97;2.97;;;16.40;53.60;;;;;;5038527;28;20208;-49
2023/11/20 07:45:42;;;;;;;5.97;1.93;;;16.50;52.70;;;;;;5048538;28;21001;-55
2023/11/20 07:48:09;;;;;;;6.73;1.93;;;16.30;52.60;;;;;;5039362;28;20449;-52
2023/11/20 07:50:35;;;;;;;3.20;2.13;;;16.50;52.80;;;;;;5037533;28;20192;-49
2023/11/20 07:53:01;;;;;;;6.77;2.80;;;16.30;52.40;;;;;;5032796;28;20439;-51
2023/11/20 07:55:27;;;;;;;9.80;3.93;;;16.30;52.90;;;;;;5039927;28;20452;-50
2023/11/20 07:57:53;;;;;;;8.03;3.57;;;16.30;52.60;;;;;;5033857;28;20308;-54
2023/11/20 08:00:19;;;;;;;11.00;3.13;;;16.30;53.10;;;;;;5035875;28;20913;-52
2023/11/20 08:02:45;;;;;;;9.10;3.00;;;16.50;52.80;;;;;;5038299;28;20189;-50
2023/11/20 08:05:11;;;;;;;5.93;2.07;;;16.60;52.80;;;;;;5032745;28;20981;-49
2023/11/20 08:07:37;;;;;;;5.63;1.80;;;16.40;52.50;;;;;;5031453;28;20923;-49
2023/11/20 08:10:04;;;;;;;5.93;1.70;;;16.30;52.10;;;;;;5032167;28;20450;-50
2023/11/20 08:12:30;;;;;;;7.33;1.60;;;16.10;52.90;;;;;;5032182;28;20680;-49
2023/11/20 08:14:56;;;;;;;7.70;2.50;;;16.30;53.00;;;;;;5036648;28;20489;-50
2023/11/20 08:17:22;;;;;;;7.00;2.67;;;16.40;53.00;;;;;;5031540;28;20994;-55
2023/11/20 08:19:48;;;;;;;8.00;2.93;;;16.40;52.70;;;;;;5034822;28;20448;-50
2023/11/20 08:22:15;;;;;;;5.50;1.80;;;16.50;52.70;;;;;;5031907;28;20185;-54
2023/11/20 08:24:43;;;;;;;6.90;1.83;;;16.60;52.80;;;;;;5032294;28;20454;-49
2023/11/20 08:27:09;;;;;;;4.80;1.50;;;16.60;52.50;;;;;;5035005;28;20442;-51
2023/11/20 08:29:35;;;;;;;6.47;2.10;;;16.50;52.30;;;;;;5039596;28;20456;-49
2023/11/20 08:32:01;;;;;;;9.90;2.10;;;16.30;52.30;;;;;;5032496;28;20423;-51
2023/11/20 08:34:26;;;;;;;3.90;1.67;;;16.10;53.10;;;;;;5035640;28;20552;-54
2023/11/20 08:36:52;;;;;;;9.40;2.27;;;15.90;53.50;;;;;;5032574;28;20208;-50
2023/11/20 08:39:21;;;;;;;7.40;1.80;;;15.90;53.80;;;;;;5038562;28;20324;-49
2023/11/20 08:41:47;;;;;;;5.73;2.27;;;16.00;54.00;;;;;;5037221;28;20188;-51
2023/11/20 08:44:12;;;;;;;11.50;1.90;;;16.00;54.00;;;;;;5038516;28;20990;-54
2023/11/20 08:46:38;;;;;;;6.47;2.47;;;16.00;54.10;;;;;;5040447;28;20620;-50
2023/11/20 08:49:06;;;;;;;7.03;2.90;;;15.90;54.30;;;;;;5036514;28;20700;-52
2023/11/20 08:51:32;;;;;;;6.83;2.03;;;15.90;54.60;;;;;;5030203;28;20188;-49
2023/11/20 08:53:58;;;;;;;8.73;2.40;;;15.80;54.60;;;;;;5039931;28;20558;-50
2023/11/20 08:56:25;;;;;;;10.13;2.93;;;15.70;55.30;;;;;;5028078;28;20550;-49
2023/11/20 08:58:51;;;;;;;6.30;1.70;;;15.80;55.60;;;;;;5030133;28;20201;-49
2023/11/20 09:01:16;;;;;;;5.03;1.90;;;15.90;55.60;;;;;;5034925;28;20459;-50
2023/11/20 09:03:42;;;;;;;6.73;2.03;;;15.80;55.60;;;;;;5030725;28;20196;-50
2023/11/20 09:06:07;;;;;;;6.53;1.97;;;15.70;55.90;;;;;;5030828;28;20656;-55
2023/11/20 09:08:33;;;;;;;8.37;2.60;;;15.70;56.10;;;;;;5039586;28;20220;-53
2023/11/20 09:10:58;;;;;;;3.83;2.30;;;15.60;56.50;;;;;;5040380;28;20281;-55
2023/11/20 09:13:24;;;;;;;5.30;2.37;;;15.80;57.20;;;;;;5039564;28;20196;-50
2023/11/20 09:15:50;;;;;;;9.07;2.60;;;16.00;56.60;;;;;;5046693;28;20267;-53
2023/11/20 09:18:15;;;;;;;3.00;1.60;;;15.80;56.30;;;;;;5046718;28;20231;-53
2023/11/20 09:20:41;;;;;;;3.53;1.27;;;15.70;56.30;;;;;;5045421;28;20188;-55
2023/11/20 09:23:06;;;;;;;4.23;1.80;;;15.80;56.00;;;;;;5037169;28;20216;-50
2023/11/20 09:25:32;;;;;;;5.97;1.87;;;15.80;56.20;;;;;;5041453;28;20188;-49
2023/11/20 09:27:58;;;;;;;4.43;2.07;;;16.00;56.10;;;;;;5046422;28;20560;-52
2023/11/20 09:30:24;;;;;;;6.53;1.70;;;16.30;55.70;;;;;;5034403;28;20219;-54
2023/11/20 09:32:50;;;;;;;4.40;1.83;;;16.50;54.90;;;;;;5040270;28;20541;-50
2023/11/20 09:35:16;;;;;;;3.67;1.50;;;16.70;54.40;;;;;;5034159;28;20539;-54
2023/11/20 09:37:42;;;;;;;8.20;2.10;;;17.00;54.00;;;;;;5034947;28;20479;-54
2023/11/20 09:40:08;;;;;;;9.17;1.87;;;17.20;53.90;;;;;;5037332;28;20505;-55
2023/11/20 09:42:35;;;;;;;7.30;2.00;;;17.40;53.30;;;;;;5034154;28;20185;-53
2023/11/20 09:45:02;;;;;;;6.73;2.00;;;17.70;53.30;;;;;;5039705;28;20436;-49
2023/11/20 09:47:29;;;;;;;5.77;1.73;;;17.70;52.40;;;;;;5037579;28;20447;-52
2023/11/20 09:49:56;;;;;;;4.97;1.90;;;17.80;52.80;;;;;;5034970;28;20452;-52
2023/11/20 09:52:24;;;;;;;4.03;2.10;;;18.10;52.20;;;;;;5031251;28;20440;-54
2023/11/20 09:54:53;;;;;;;8.13;2.63;;;18.30;51.40;;;;;;5034636;28;20951;-55
2023/11/20 09:57:23;;;;;;;5.83;1.90;;;18.00;51.40;;;;;;5030815;28;20537;-54
2023/11/20 09:59:48;;;;;;;4.33;1.77;;;17.80;52.00;;;;;;5031158;28;20558;-54
2023/11/20 10:02:14;;;;;;;7.47;2.00;;;17.60;52.20;;;;;;5027234;28;20561;-51
2023/11/20 10:04:41;;;;;;;5.47;2.10;;;17.30;52.40;;;;;;5029438;28;20185;-53
2023/11/20 10:07:10;;;;;;;7.57;2.20;;;17.30;53.00;;;;;;5027601;28;20684;-53
2023/11/20 10:09:36;;;;;;;4.83;1.83;;;17.30;53.10;;;;;;5036032;28;20541;-52
2023/11/20 10:12:06;;;;;;;6.33;1.83;;;17.60;52.90;;;;;;5029756;28;20442;-54
2023/11/20 10:14:32;;;;;;;7.47;1.80;;;17.80;52.90;;;;;;5032554;28;20451;-56
2023/11/20 10:16:58;;;;;;;5.90;1.60;;;18.10;52.70;;;;;;5029773;28;20821;-55
2023/11/20 10:19:24;;;;;;;6.27;1.87;;;18.10;52.60;;;;;;5032299;28;20510;-53
2023/11/20 10:21:50;;;;;;;5.30;1.67;;;17.90;52.80;;;;;;5031907;28;20494;-55
2023/11/20 10:24:17;;;;;;;5.50;1.40;;;17.70;53.70;;;;;;5029837;28;20193;-53
2023/11/20 10:26:45;;;;;;;4.33;1.47;;;17.80;54.20;;;;;;5030935;28;20864;-53
2023/11/20 10:29:10;;;;;;;3.40;1.70;;;17.90;53.80;;;;;;5035917;28;20466;-54
2023/11/20 10:31:43;;;;;;;9.20;1.83;;;17.90;53.30;;;;;;5032094;28;20534;-53
2023/11/20 10:34:09;;;;;;;4.10;1.63;;;17.90;52.50;;;;;;5036658;28;20186;-52
2023/11/20 10:36:36;;;;;;;3.40;1.40;;;17.80;51.40;;;;;;5031921;28;20484;-55
2023/11/20 10:39:02;;;;;;;3.57;1.37;;;17.30;50.20;;;;;;5033966;28;20868;-55
2023/11/20 10:41:35;;;;;;;6.17;1.93;;;17.10;51.50;;;;;;5028716;28;20508;-52
2023/11/20 10:44:01;;;;;;;4.00;1.33;;;17.00;53.10;;;;;;5029619;28;20501;-54
2023/11/20 10:46:27;;;;;;;2.00;1.47;;;16.80;52.90;;;;;;5036279;28;20439;-53
2023/11/20 10:48:54;;;;;;;4.10;1.60;;;16.70;52.50;;;;;;5032706;28;20463;-56
2023/11/20 10:51:22;;;;;;;8.30;1.60;;;16.70;52.90;;;;;;5028135;28;20232;-55
2023/11/20 10:54:11;;;;;;;9.90;1.50;;;16.80;52.40;;;;;;5027237;28;20460;-54
2023/11/20 10:56:39;;;;;;;5.83;1.80;;;17.00;52.20;;;;;;5036475;28;20514;-53
2023/11/20 10:59:05;;;;;;;6.20;1.80;;;16.80;52.10;;;;;;5040683;28;20467;-54
2023/11/20 11:01:32;;;;;;;8.73;1.50;;;16.40;53.80;;;;;;5028090;28;20436;-55
2023/11/20 11:03:58;;;;;;;4.10;1.60;;;16.10;56.30;;;;;;5040572;28;20871;-53
2023/11/20 11:06:24;;;;;;;3.70;1.70;;;16.00;57.40;;;;;;5030541;28;20538;-54
2023/11/20 11:08:51;;;;;;;5.07;1.63;;;15.90;58.20;;;;;;5033143;28;20300;-55
2023/11/20 11:11:18;;;;;;;4.67;1.90;;;15.90;59.40;;;;;;5033356;28;20443;-53
2023/11/20 11:13:46;;;;;;;6.67;1.50;;;16.30;59.60;;;;;;5031281;28;20451;-53
2023/11/20 11:16:37;;;;;;;5.67;1.20;;;16.40;59.00;;;;;;5029930;28;20431;-53
2023/11/20 11:19:06;;;;;;;6.37;1.60;;;16.50;58.60;;;;;;5035265;28;21159;-54
2023/11/20 11:21:51;;;;;;;8.57;2.07;;;16.60;58.20;;;;;;5034842;28;20448;-50
2023/11/20 11:24:20;;;;;;;5.97;1.63;;;16.80;58.50;;;;;;5037441;28;20862;-51
2023/11/20 11:26:55;;;;;;;5.40;1.60;;;17.00;58.10;;;;;;5033687;28;21093;-53
2023/11/20 11:29:36;;;;;;;3.00;1.47;;;17.10;57.30;;;;;;5037157;28;20468;-54
2023/11/20 11:32:19;;;;;;;4.00;2.07;;;17.10;56.90;;;;;;5036235;28;20431;-51
2023/11/20 11:34:51;;;;;;;5.17;1.40;;;17.00;56.20;;;;;;5037699;28;20482;-50
2023/11/20 11:37:41;;;;;;;2.53;1.33;;;16.90;56.20;;;;;;5041733;28;21051;-49
2023/11/20 11:40:19;;;;;;;5.43;1.50;;;17.10;56.40;;;;;;5033563;28;20458;-52
2023/11/20 11:42:51;;;;;;;5.83;1.23;;;17.30;56.00;;;;;;5035292;28;20858;-50
2023/11/20 11:45:20;;;;;;;5.50;1.27;;;17.50;55.50;;;;;;5037125;28;20493;-50
2023/11/20 11:47:47;;;;;;;2.20;1.40;;;17.50;55.50;;;;;;5035420;28;20629;-56
2023/11/20 11:50:17;;;;;;;2.80;1.33;;;17.40;55.70;;;;;;5031456;28;20468;-52
2023/11/20 11:52:43;;;;;;;2.37;1.80;;;17.20;55.10;;;;;;5031160;28;20439;-51
2023/11/20 11:55:12;;;;;;;3.17;1.40;;;16.90;55.30;;;;;;5030327;28;20501;-53
2023/11/20 11:57:39;;;;;;;5.97;2.57;;;16.90;55.90;;;;;;5032184;28;20501;-50
2023/11/20 12:00:20;;;;;;;6.53;2.13;;;16.70;56.20;;;;;;5034597;28;20868;-55
2023/11/20 12:03:11;;;;;;;4.47;1.73;;;16.70;56.60;;;;;;5036709;28;20946;-51
2023/11/20 12:06:13;;;;;;;3.67;1.60;;;16.80;56.40;;;;;;5033531;28;20455;-49
2023/11/20 12:08:39;;;;;;;8.43;2.17;;;17.00;56.40;;;;;;5036574;28;20455;-50
2023/11/20 12:11:05;;;;;;;5.50;2.33;;;17.00;56.30;;;;;;5030404;28;20443;-51
2023/11/20 12:13:31;;;;;;;2.10;1.30;;;16.90;55.60;;;;;;5039470;28;20448;-50
2023/11/20 12:16:13;;;;;;;2.03;1.00;;;16.60;55.40;;;;;;5043468;28;20192;-49
2023/11/20 12:18:39;;;;;;;2.67;1.10;;;16.50;55.80;;;;;;5040486;28;20451;-52
2023/11/20 12:21:12;;;;;;;2.40;1.30;;;16.50;55.70;;;;;;5031152;28;20436;-51
2023/11/20 12:23:39;;;;;;;4.30;1.57;;;16.40;55.80;;;;;;5032563;28;20193;-52
2023/11/20 12:26:09;;;;;;;1.37;0.83;;;16.60;55.30;;;;;;5036921;28;20455;-52
2023/11/20 12:28:36;;;;;;;1.20;0.70;;;16.80;55.10;;;;;;5030694;28;20474;-52
2023/11/20 12:31:04;;;;;;;1.37;1.00;;;16.80;53.40;;;;;;5040829;28;20447;-52
2023/11/20 12:33:30;;;;;;;0.90;0.80;;;16.80;53.60;;;;;;5034319;28;20451;-52
2023/11/20 12:35:57;;;;;;;1.13;0.70;;;16.80;52.80;;;;;;5036371;28;20431;-55
2023/11/20 12:38:23;;;;;;;2.10;0.87;;;16.90;52.80;;;;;;5033869;28;20471;-50
2023/11/20 12:40:53;;;;;;;0.90;0.80;;;16.80;52.70;;;;;;5032685;28;20464;-50
2023/11/20 12:43:19;;;;;;;1.60;0.80;;;16.60;52.40;;;;;;5031971;28;20255;-53
2023/11/20 12:45:46;;;;;;;2.00;0.90;;;16.70;53.30;;;;;;5031743;28;20506;-55